Time;durP1;ratioP1;P1;durP2;ratioP2;P2;SDS_P1;SDS_P2;PMS_P1;PMS_P2;Temp;Humidity;BMP_temperature;BMP_pressure;BME280_temperature;BME280_humidity;BME280_pressure;Samples;Min_cycle;Max_cycle;Signal;HPM_P1;HPM_P2
2022/04/04 00:00:27;;;;;;;5.40;5.00;;;;;;;22.23;30.63;95229.44;6086478;28;103168;-61
2022/04/04 00:03:29;;;;;;;5.30;5.00;;;;;;;22.24;30.80;95228.34;6068725;28;104054;-60
2022/04/04 00:06:33;;;;;;;5.20;4.90;;;;;;;22.23;30.41;95225.97;6057761;28;102714;-61
2022/04/04 00:09:34;;;;;;;5.00;4.70;;;;;;;22.23;30.85;95231.31;6084149;28;103780;-60
2022/04/04 00:12:36;;;;;;;5.07;4.70;;;;;;;22.22;30.22;95232.41;6085724;28;104669;-60
2022/04/04 00:15:38;;;;;;;4.73;4.43;;;;;;;22.20;30.41;95230.03;6080165;28;103543;-60
2022/04/04 00:18:40;;;;;;;4.63;4.33;;;;;;;22.22;30.68;95229.75;6098259;28;103059;-60
2022/04/04 00:21:42;;;;;;;4.63;4.33;;;;;;;22.23;30.75;95225.97;6084174;28;103254;-60
2022/04/04 00:24:44;;;;;;;4.63;4.33;;;;;;;22.22;30.38;95227.06;6086335;28;104091;-61
2022/04/04 00:27:45;;;;;;;4.80;4.50;;;;;;;22.21;30.12;95228.94;6079807;28;104180;-60
2022/04/04 00:30:47;;;;;;;4.40;4.10;;;;;;;22.23;30.54;95233.97;6069561;28;103342;-60
2022/04/04 00:33:49;;;;;;;4.40;4.10;;;;;;;22.22;30.50;95227.84;6086202;28;102757;-60
2022/04/04 00:36:51;;;;;;;4.93;4.63;;;;;;;22.21;30.48;95234.28;6085947;28;102943;-60
2022/04/04 00:39:52;;;;;;;4.60;4.30;;;;;;;22.22;30.60;95237.75;6063290;28;104154;-60
2022/04/04 00:42:54;;;;;;;4.27;4.00;;;;;;;22.22;30.37;95229.75;6083558;28;103467;-60
2022/04/04 00:45:56;;;;;;;4.70;4.40;;;;;;;22.22;30.06;95235.06;6084949;28;103588;-60
2022/04/04 00:48:58;;;;;;;3.83;3.60;;;;;;;22.22;30.55;95229.75;6079489;28;104592;-60
2022/04/04 00:52:00;;;;;;;4.70;4.40;;;;;;;22.20;30.45;95232.72;6085175;28;104325;-60
2022/04/04 00:55:02;;;;;;;4.93;4.53;;;;;;;22.21;29.97;95228.16;6086526;28;103428;-61
2022/04/04 00:58:05;;;;;;;3.90;3.70;;;;;;;22.21;30.24;95233.50;6084830;28;103033;-60
2022/04/04 01:01:07;;;;;;;4.37;4.07;;;;;;;22.20;30.35;95234.59;6081484;28;103215;-60
2022/04/04 01:04:11;;;;;;;4.50;4.20;;;;;;;22.20;30.05;95238.03;6084737;28;103228;-61
2022/04/04 01:07:13;;;;;;;3.70;3.50;;;;;;;22.20;29.91;95234.59;6085882;28;103154;-60
2022/04/04 01:10:15;;;;;;;4.00;3.70;;;;;;;22.19;30.14;95227.69;6084382;28;103949;-60
2022/04/04 01:13:19;;;;;;;4.40;4.10;;;;;;;22.20;29.68;95230.03;6078906;28;103048;-60
2022/04/04 01:16:21;;;;;;;4.30;4.00;;;;;;;22.19;30.03;95233.81;6085627;28;103011;-61
2022/04/04 01:19:23;;;;;;;4.17;3.87;;;;;;;22.19;29.93;95219.69;6079156;28;103366;-62
2022/04/04 01:22:25;;;;;;;3.40;3.20;;;;;;;22.18;29.64;95221.56;6080854;28;104105;-61
2022/04/04 01:25:32;;;;;;;3.93;3.63;;;;;;;22.17;29.77;95221.84;6085051;28;104126;-61
2022/04/04 01:28:33;;;;;;;4.07;3.83;;;;;;;22.17;29.87;95211.97;6084351;28;102992;-61
2022/04/04 01:31:35;;;;;;;4.30;4.00;;;;;;;22.19;29.98;95215.13;6084200;28;103297;-61
2022/04/04 01:34:37;;;;;;;3.80;3.57;;;;;;;22.18;30.19;95226.06;6060713;28;103330;-61
2022/04/04 01:37:39;;;;;;;4.17;3.90;;;;;;;22.18;29.64;95226.06;6085627;28;103174;-61
2022/04/04 01:40:41;;;;;;;4.13;3.83;;;;;;;22.19;29.73;95230.34;6084717;28;104087;-61
2022/04/04 01:43:43;;;;;;;3.60;3.40;;;;;;;22.17;29.62;95222.63;6083357;28;103101;-61
2022/04/04 01:46:44;;;;;;;3.80;3.60;;;;;;;22.17;29.88;95217.28;6087462;28;104520;-61
2022/04/04 01:49:46;;;;;;;3.57;3.37;;;;;;;22.17;29.54;95224.50;6088050;28;103491;-61
2022/04/04 01:53:25;;;;;;;3.67;3.47;;;;;;;22.18;29.49;95231.41;6089790;28;104475;-61
2022/04/04 01:56:10;;;;;;;3.30;3.10;;;;;;;22.17;29.79;95233.28;6082799;28;103942;-61
2022/04/04 01:59:11;;;;;;;2.83;2.63;;;;;;;22.19;29.45;95230.34;6087492;28;103198;-61
2022/04/04 02:02:13;;;;;;;4.37;4.07;;;;;;;22.18;29.29;95228.75;6088227;28;103342;-62
2022/04/04 02:05:15;;;;;;;3.93;3.70;;;;;;;22.18;29.73;95242.88;6072104;28;104291;-61
2022/04/04 02:08:17;;;;;;;3.20;3.00;;;;;;;22.17;29.19;95235.94;6084268;28;104092;-61
2022/04/04 02:11:20;;;;;;;3.33;3.13;;;;;;;22.16;29.39;95230.94;6086417;28;103725;-61
2022/04/04 02:14:22;;;;;;;3.00;2.80;;;;;;;22.16;29.54;95221.06;6087919;28;103281;-61
2022/04/04 02:17:24;;;;;;;3.07;2.87;;;;;;;22.16;29.48;95223.72;6083787;28;103286;-61
2022/04/04 02:20:26;;;;;;;3.10;2.90;;;;;;;22.16;29.46;95221.06;6088965;28;103209;-61
2022/04/04 02:23:28;;;;;;;3.80;3.50;;;;;;;22.18;29.53;95220.75;6088531;28;103315;-64
2022/04/04 02:26:31;;;;;;;3.13;2.93;;;;;;;22.17;28.98;95221.84;6071876;28;102857;-62
2022/04/04 02:29:34;;;;;;;3.80;3.60;;;;;;;22.16;29.10;95214.94;6082400;28;103072;-61
2022/04/04 02:32:36;;;;;;;3.40;3.20;;;;;;;22.14;29.43;95222.44;6087558;28;102804;-61
2022/04/04 02:35:39;;;;;;;3.30;3.10;;;;;;;22.15;28.97;95214.16;6089065;28;103098;-61
2022/04/04 02:38:40;;;;;;;3.40;3.20;;;;;;;22.15;29.38;95208.03;6082869;28;102892;-62
2022/04/04 02:41:42;;;;;;;3.50;3.30;;;;;;;22.15;29.32;95208.03;6087308;28;104197;-61
2022/04/04 02:44:44;;;;;;;3.20;3.00;;;;;;;22.16;29.30;95207.72;6087297;28;103803;-61
2022/04/04 02:47:46;;;;;;;2.80;2.60;;;;;;;22.15;29.09;95208.03;6086897;28;103099;-61
2022/04/04 02:50:48;;;;;;;3.13;2.93;;;;;;;22.12;28.73;95198.75;6083138;28;103162;-61
2022/04/04 02:53:50;;;;;;;3.10;2.90;;;;;;;22.16;28.93;95204.28;6087570;28;102965;-62
2022/04/04 02:56:52;;;;;;;3.20;3.00;;;;;;;22.14;29.32;95204.56;6087681;28;103143;-62
2022/04/04 02:59:55;;;;;;;3.23;3.03;;;;;;;22.15;29.00;95205.38;6086101;28;103088;-61
2022/04/04 03:02:57;;;;;;;2.90;2.70;;;;;;;22.15;29.00;95213.34;6082341;28;104579;-62
2022/04/04 03:05:59;;;;;;;3.20;3.00;;;;;;;22.15;29.33;95208.03;6087402;28;103160;-61
2022/04/04 03:09:01;;;;;;;2.77;2.57;;;;;;;22.15;29.25;95208.81;6087463;28;103251;-62
2022/04/04 03:12:03;;;;;;;2.97;2.77;;;;;;;22.16;29.33;95205.06;6080846;28;104078;-61
2022/04/04 03:15:06;;;;;;;2.70;2.50;;;;;;;22.17;29.41;95208.50;6086400;28;104197;-62
2022/04/04 03:18:08;;;;;;;2.93;2.73;;;;;;;22.17;29.29;95208.50;6090487;28;104008;-62
2022/04/04 03:21:11;;;;;;;3.03;2.83;;;;;;;22.14;29.46;95211.78;6086930;28;104169;-62
2022/04/04 03:24:13;;;;;;;3.13;2.93;;;;;;;22.08;28.93;95214.56;6082946;28;104112;-62
2022/04/04 03:27:15;;;;;;;2.90;2.70;;;;;;;22.09;29.33;95212.69;6087236;28;103457;-62
2022/04/04 03:30:23;;;;;;;3.60;3.37;;;;;;;22.10;28.83;95219.59;6086579;28;104309;-62
2022/04/04 03:33:25;;;;;;;3.30;3.10;;;;;;;22.15;28.53;95213.34;6083196;28;106551;-62
2022/04/04 03:36:27;;;;;;;3.53;3.23;;;;;;;22.12;28.92;95222.75;6086323;28;103971;-62
2022/04/04 03:39:28;;;;;;;3.80;3.60;;;;;;;22.09;29.09;95237.47;6085588;28;104108;-62
2022/04/04 03:42:30;;;;;;;5.30;4.10;;;;;;;22.07;28.64;95241.53;6086650;28;103519;-62
2022/04/04 03:45:33;;;;;;;6.70;5.40;;;;;;;21.91;30.28;95237.63;6079739;28;104157;-62
2022/04/04 03:48:34;;;;;;;5.93;5.43;;;;;;;21.81;29.68;95238.56;6086142;28;103200;-61
2022/04/04 03:51:36;;;;;;;5.80;5.40;;;;;;;21.93;28.95;95236.22;6087581;28;103325;-62
2022/04/04 03:54:38;;;;;;;5.50;4.60;;;;;;;21.99;28.28;95244.88;6069002;28;103371;-61
2022/04/04 03:57:40;;;;;;;5.63;5.23;;;;;;;21.91;28.94;95246.41;6076300;28;104691;-62
2022/04/04 04:00:42;;;;;;;6.50;6.00;;;;;;;21.70;29.31;95256.66;6082132;28;103044;-61
2022/04/04 04:03:44;;;;;;;6.10;5.70;;;;;;;21.55;28.69;95261.50;6084825;28;103272;-62
2022/04/04 04:06:46;;;;;;;7.23;6.73;;;;;;;21.51;28.51;95262.09;6082956;28;103562;-62
2022/04/04 04:09:48;;;;;;;7.63;6.10;;;;;;;21.43;28.57;95262.78;6085749;28;106905;-61
2022/04/04 04:12:50;;;;;;;6.87;6.23;;;;;;;21.60;28.19;95269.38;6086070;28;104257;-59
2022/04/04 04:15:51;;;;;;;8.03;5.80;;;;;;;21.63;28.07;95274.91;6065933;28;103340;-60
2022/04/04 04:18:53;;;;;;;7.03;6.57;;;;;;;21.45;28.29;95275.78;6088654;28;103317;-60
2022/04/04 04:21:55;;;;;;;6.60;6.10;;;;;;;21.29;27.25;95291.25;6072730;28;103878;-60
2022/04/04 04:24:58;;;;;;;6.80;6.30;;;;;;;21.41;27.25;95293.44;6078923;28;103897;-59
2022/04/04 04:28:02;;;;;;;6.80;6.20;;;;;;;21.49;27.70;95292.75;6085754;28;103028;-61
2022/04/04 04:31:04;;;;;;;7.53;5.63;;;;;;;21.51;27.83;95285.28;6074798;28;103298;-61
2022/04/04 04:34:06;;;;;;;7.33;6.73;;;;;;;21.51;27.86;95288.72;6086536;28;102994;-61
2022/04/04 04:37:08;;;;;;;6.70;6.27;;;;;;;21.52;27.44;95295.63;6073771;28;103228;-61
2022/04/04 04:40:10;;;;;;;6.60;5.93;;;;;;;21.46;27.32;95311.97;6075689;28;104548;-60
2022/04/04 04:43:12;;;;;;;6.70;6.20;;;;;;;21.50;27.27;95307.63;6084863;28;103156;-61
2022/04/04 04:46:14;;;;;;;5.77;5.37;;;;;;;21.49;27.69;95319.38;6086578;28;103373;-61
2022/04/04 04:49:16;;;;;;;6.00;5.60;;;;;;;21.45;27.22;95313.06;6086303;28;103067;-61
2022/04/04 04:52:18;;;;;;;6.90;5.90;;;;;;;21.35;26.82;95308.72;6082018;28;103219;-61
2022/04/04 04:55:21;;;;;;;6.30;5.90;;;;;;;21.42;27.18;95318.97;6086099;28;103226;-61
2022/04/04 04:58:23;;;;;;;6.40;5.97;;;;;;;21.40;27.18;95313.97;6086315;28;103056;-61
2022/04/04 05:01:24;;;;;;;6.40;5.90;;;;;;;21.43;26.75;95328.53;6084796;28;102970;-61
2022/04/04 05:04:26;;;;;;;6.10;5.60;;;;;;;21.44;27.48;95316.81;6083816;28;104139;-61
2022/04/04 05:07:28;;;;;;;8.10;6.00;;;;;;;21.37;28.07;95319.88;6086390;28;102994;-60
2022/04/04 05:10:30;;;;;;;5.80;5.30;;;;;;;21.45;27.69;95313.06;6084901;28;103313;-60
2022/04/04 05:13:32;;;;;;;5.97;5.47;;;;;;;21.58;27.32;95320.28;6080904;28;103065;-61
2022/04/04 05:16:34;;;;;;;5.23;4.83;;;;;;;21.70;27.74;95323.25;6090330;28;103173;-61
2022/04/04 05:19:36;;;;;;;5.50;4.80;;;;;;;21.78;27.88;95321.75;6114417;28;103112;-61
2022/04/04 05:22:37;;;;;;;5.00;4.60;;;;;;;21.85;28.08;95321.41;6114198;28;103151;-61
2022/04/04 05:25:40;;;;;;;5.70;5.30;;;;;;;21.86;28.51;95323.78;6108837;28;104252;-60
2022/04/04 05:28:42;;;;;;;5.13;4.73;;;;;;;21.86;28.96;95329.09;6114268;28;103113;-61
2022/04/04 05:31:48;;;;;;;5.20;4.80;;;;;;;21.95;29.42;95340.63;6096086;28;103129;-61
2022/04/04 05:34:49;;;;;;;5.43;5.00;;;;;;;21.98;29.26;95349.91;6108996;28;103453;-61
2022/04/04 05:37:54;;;;;;;5.40;4.77;;;;;;;22.00;29.85;95351.19;6113513;28;103122;-61
2022/04/04 05:40:57;;;;;;;6.60;5.80;;;;;;;22.06;30.62;95343.88;6113415;28;103225;-61
2022/04/04 05:43:58;;;;;;;5.17;4.87;;;;;;;22.07;31.11;95348.13;6113508;28;103287;-60
2022/04/04 05:47:00;;;;;;;10.50;5.70;;;;;;;22.15;31.54;95354.63;6108241;28;103221;-63
2022/04/04 05:50:02;;;;;;;5.90;5.10;;;;;;;22.24;32.58;95358.19;6113314;28;103184;-60
2022/04/04 05:53:04;;;;;;;6.50;5.37;;;;;;;22.24;32.28;95353.63;6113627;28;104021;-61
2022/04/04 05:56:06;;;;;;;5.60;5.10;;;;;;;22.23;31.94;95348.59;6113465;28;103324;-61
2022/04/04 05:59:08;;;;;;;6.03;5.43;;;;;;;22.33;32.50;95367.03;6107916;28;103009;-61
2022/04/04 06:02:10;;;;;;;8.43;5.80;;;;;;;22.37;32.81;95376.03;6112617;28;103193;-61
2022/04/04 06:05:12;;;;;;;6.13;5.50;;;;;;;22.39;32.89;95368.53;6113510;28;103495;-61
2022/04/04 06:08:14;;;;;;;6.20;5.60;;;;;;;22.42;34.03;95378.59;6107753;28;103990;-61
2022/04/04 06:11:16;;;;;;;5.70;5.20;;;;;;;22.44;32.58;95371.06;6112550;28;104342;-61
2022/04/04 06:14:18;;;;;;;6.27;5.67;;;;;;;22.46;32.79;95368.09;6112645;28;103040;-61
2022/04/04 06:17:20;;;;;;;7.57;6.90;;;;;;;22.51;32.86;95359.97;6106737;28;104154;-61
2022/04/04 06:20:22;;;;;;;7.50;6.90;;;;;;;22.54;33.04;95359.41;6084593;28;103301;-61
2022/04/04 06:23:23;;;;;;;10.13;9.13;;;;;;;22.54;32.43;95362.88;6088799;28;103159;-61
2022/04/04 06:26:26;;;;;;;9.97;9.17;;;;;;;22.51;32.33;95354.66;6088254;28;103069;-60
2022/04/04 06:29:28;;;;;;;11.10;8.13;;;;;;;22.54;32.97;95352.19;6085655;28;104043;-61
2022/04/04 06:32:30;;;;;;;9.00;8.30;;;;;;;22.57;32.57;95354.28;6086968;28;103321;-60
2022/04/04 06:35:32;;;;;;;9.13;8.43;;;;;;;22.56;32.35;95350.00;6089346;28;103054;-61
2022/04/04 06:38:34;;;;;;;9.20;8.40;;;;;;;22.63;32.42;95357.63;6088992;28;104409;-61
2022/04/04 06:41:36;;;;;;;10.57;9.53;;;;;;;22.62;32.10;95372.06;6083930;28;104387;-60
2022/04/04 06:44:38;;;;;;;10.57;8.53;;;;;;;22.61;32.34;95373.94;6088161;28;103324;-61
2022/04/04 06:47:40;;;;;;;10.13;8.30;;;;;;;22.59;32.36;95372.66;6089083;28;103176;-61
2022/04/04 06:50:42;;;;;;;9.20;8.10;;;;;;;22.67;32.29;95374.59;6088453;28;103205;-60
2022/04/04 06:53:45;;;;;;;9.50;8.00;;;;;;;22.57;31.75;95362.28;6082344;28;103052;-60
2022/04/04 06:56:49;;;;;;;12.80;8.07;;;;;;;22.55;31.96;95361.00;6087350;28;103014;-60
2022/04/04 06:59:51;;;;;;;8.67;7.87;;;;;;;22.55;31.70;95375.09;6101733;28;103573;-61
2022/04/04 07:02:54;;;;;;;9.30;7.20;;;;;;;22.60;31.67;95375.03;6083011;28;103253;-60
2022/04/04 07:05:56;;;;;;;11.57;7.80;;;;;;;22.62;31.90;95377.38;6088224;28;103346;-61
2022/04/04 07:08:57;;;;;;;8.73;7.67;;;;;;;22.64;31.37;95373.31;6086800;28;103156;-61
2022/04/04 07:11:59;;;;;;;7.93;7.13;;;;;;;22.68;31.36;95379.66;6086896;28;103355;-61
2022/04/04 07:15:02;;;;;;;9.97;7.40;;;;;;;22.68;31.49;95379.66;6081655;28;103186;-60
2022/04/04 07:18:04;;;;;;;7.73;7.03;;;;;;;22.68;31.69;95370.84;6099339;28;103135;-60
2022/04/04 07:21:06;;;;;;;7.67;7.00;;;;;;;22.77;31.20;95384.25;6111152;28;104345;-61
2022/04/04 07:24:08;;;;;;;9.57;7.20;;;;;;;22.79;31.32;95376.75;6112202;28;104060;-60
2022/04/04 07:27:10;;;;;;;8.80;6.77;;;;;;;22.87;31.09;95381.38;6105759;28;103360;-60
2022/04/04 07:30:16;;;;;;;8.00;7.40;;;;;;;22.91;31.08;95385.00;6111146;28;103221;-60
2022/04/04 07:33:18;;;;;;;7.70;7.00;;;;;;;22.94;31.42;95390.53;6110800;28;102785;-61
2022/04/04 07:36:21;;;;;;;9.93;7.07;;;;;;;23.00;31.30;95391.19;6105543;28;104030;-61
2022/04/04 07:39:23;;;;;;;7.60;6.90;;;;;;;23.01;31.38;95390.09;6110901;28;103386;-61
2022/04/04 07:42:25;;;;;;;7.30;6.70;;;;;;;23.00;31.11;95393.84;6110881;28;103036;-61
2022/04/04 07:45:29;;;;;;;10.20;7.30;;;;;;;23.01;31.53;95395.44;6109659;28;103010;-60
2022/04/04 07:48:32;;;;;;;9.33;7.37;;;;;;;23.06;31.23;95391.88;6105230;28;103427;-60
2022/04/04 07:51:33;;;;;;;8.07;6.83;;;;;;;23.05;31.14;95401.75;6110377;28;104300;-60
2022/04/04 07:54:36;;;;;;;8.70;6.50;;;;;;;23.04;31.56;95402.84;6111070;28;103034;-61
2022/04/04 07:57:39;;;;;;;7.00;6.40;;;;;;;23.06;31.15;95398.00;6106222;28;104424;-61
2022/04/04 08:00:41;;;;;;;9.43;7.07;;;;;;;23.06;31.53;95392.66;6098490;28;103278;-60
2022/04/04 08:03:42;;;;;;;7.33;5.80;;;;;;;23.05;31.66;95401.75;6108469;28;104104;-60
2022/04/04 08:06:44;;;;;;;6.50;5.90;;;;;;;23.04;31.50;95394.06;6109998;28;103165;-61
2022/04/04 08:09:47;;;;;;;19.10;7.07;;;;;;;23.08;31.17;95397.69;6104640;28;104067;-61
2022/04/04 08:12:52;;;;;;;7.23;6.23;;;;;;;22.99;31.50;95394.94;6085816;28;104084;-61
2022/04/04 08:15:56;;;;;;;7.27;6.67;;;;;;;23.00;31.29;95397.31;6085702;28;103065;-61
2022/04/04 08:18:58;;;;;;;6.80;6.20;;;;;;;23.04;31.36;95391.41;6104871;28;103173;-61
2022/04/04 08:22:00;;;;;;;6.30;5.70;;;;;;;23.03;31.37;95387.94;6103171;28;103276;-62
2022/04/04 08:25:01;;;;;;;6.57;6.10;;;;;;;23.00;30.85;95385.84;6084696;28;104281;-62
2022/04/04 08:28:03;;;;;;;6.87;6.17;;;;;;;22.96;30.81;95383.00;6084643;28;103199;-61
2022/04/04 08:31:05;;;;;;;7.33;6.70;;;;;;;22.95;31.24;95376.09;6080587;28;103265;-60
2022/04/04 08:34:08;;;;;;;10.27;6.63;;;;;;;22.92;30.70;95368.69;6095739;28;104158;-60
2022/04/04 08:37:13;;;;;;;7.43;6.77;;;;;;;22.92;30.89;95366.03;6109378;28;103319;-61
2022/04/04 08:40:18;;;;;;;6.80;6.30;;;;;;;22.94;31.03;95363.84;6109285;28;104035;-61
2022/04/04 08:43:20;;;;;;;7.70;7.10;;;;;;;22.96;30.81;95366.19;6099749;28;104785;-61
2022/04/04 08:46:23;;;;;;;8.40;7.70;;;;;;;22.98;30.80;95366.69;6091357;28;103200;-61
2022/04/04 08:49:26;;;;;;;8.60;7.90;;;;;;;22.99;31.19;95354.91;6109102;28;104233;-61
2022/04/04 08:52:28;;;;;;;9.97;9.17;;;;;;;23.00;31.47;95356.50;6104091;28;103173;-61
2022/04/04 08:55:30;;;;;;;10.20;9.40;;;;;;;22.99;31.68;95345.03;6104728;28;104704;-61
2022/04/04 08:58:33;;;;;;;11.47;10.57;;;;;;;22.99;31.29;95336.22;6108140;28;104304;-61
2022/04/04 09:01:35;;;;;;;12.33;11.33;;;;;;;23.00;31.39;95335.91;6109256;28;103011;-61
2022/04/04 09:04:38;;;;;;;11.80;10.90;;;;;;;23.02;31.79;95319.63;6097458;28;103396;-60
2022/04/04 09:08:06;;;;;;;13.37;12.20;;;;;;;23.04;31.90;95319.31;6109005;28;103461;-61
2022/04/04 09:11:08;;;;;;;14.20;13.13;;;;;;;23.02;31.72;95316.97;6080720;28;104018;-61
2022/04/04 09:14:13;;;;;;;14.73;13.33;;;;;;;23.04;31.85;95322.78;6072117;28;103638;-61
2022/04/04 09:17:17;;;;;;;17.17;15.60;;;;;;;23.13;31.88;95315.59;6060776;28;104305;-60
2022/04/04 09:20:19;;;;;;;18.13;16.63;;;;;;;23.18;31.97;95320.00;6084034;28;103275;-61
2022/04/04 09:23:20;;;;;;;18.77;17.10;;;;;;;23.22;32.66;95313.78;6071809;28;103526;-61
2022/04/04 09:26:29;;;;;;;18.40;16.63;;;;;;;23.28;32.34;95314.44;6032342;28;103381;-61
2022/04/04 09:29:35;;;;;;;19.30;17.80;;;;;;;23.27;32.42;95308.31;6064521;28;104348;-61
2022/04/04 09:32:39;;;;;;;22.67;20.40;;;;;;;23.29;32.72;95305.34;6079935;28;103430;-61
2022/04/04 09:35:46;;;;;;;22.30;20.47;;;;;;;23.26;32.53;95281.91;6083676;28;103038;-61
2022/04/04 09:39:00;;;;;;;23.43;21.53;;;;;;;23.26;32.67;95287.25;6078954;28;103209;-61
2022/04/04 09:42:14;;;;;;;22.50;20.70;;;;;;;23.29;32.94;95284.78;6084386;28;103315;-61
2022/04/04 09:45:16;;;;;;;23.33;20.87;;;;;;;23.29;32.77;95282.09;6060424;28;104067;-61
2022/04/04 09:48:19;;;;;;;23.17;21.00;;;;;;;23.30;32.73;95286.34;6058710;28;103094;-61
2022/04/04 09:51:39;;;;;;;19.87;18.27;;;;;;;23.27;32.55;95276.25;6084244;28;104048;-61
2022/04/04 09:54:43;;;;;;;21.60;19.50;;;;;;;23.29;32.31;95273.31;6062203;28;104224;-61
2022/04/04 09:57:50;;;;;;;21.20;19.17;;;;;;;23.32;32.41;95272.69;6061143;28;103150;-61
2022/04/04 10:00:52;;;;;;;20.90;19.20;;;;;;;23.29;32.52;95267.97;6059516;28;103046;-61
2022/04/04 10:03:56;;;;;;;20.50;18.67;;;;;;;23.24;32.57;95260.84;6064948;28;103068;-61
2022/04/04 10:07:08;;;;;;;22.33;20.40;;;;;;;23.29;32.58;95255.41;6065604;28;103222;-61
2022/04/04 10:10:10;;;;;;;21.47;19.50;;;;;;;23.30;32.48;95254.31;6061411;28;103165;-61
2022/04/04 10:13:13;;;;;;;21.10;19.33;;;;;;;23.19;32.39;95253.00;6071586;28;104388;-61
2022/04/04 10:16:16;;;;;;;22.90;20.90;;;;;;;23.07;32.27;95242.09;6089044;28;104168;-61
2022/04/04 10:19:19;;;;;;;21.80;19.90;;;;;;;23.07;32.09;95242.09;6109624;28;104509;-61
2022/04/04 10:22:21;;;;;;;22.60;20.60;;;;;;;23.01;31.74;95236.06;6107625;28;103852;-60
2022/04/04 10:25:25;;;;;;;20.77;19.03;;;;;;;22.96;32.10;95224.75;6112603;28;105181;-60
2022/04/04 10:28:35;;;;;;;21.53;19.73;;;;;;;22.98;31.86;95226.00;6094716;28;103016;-60
2022/04/04 10:31:50;;;;;;;21.33;19.63;;;;;;;22.96;31.54;95222.88;6111432;28;104916;-61
2022/04/04 10:34:52;;;;;;;21.90;19.93;;;;;;;22.92;31.35;95213.91;6111896;28;104115;-61
2022/04/04 10:37:58;;;;;;;21.20;19.40;;;;;;;22.92;31.84;95211.25;6113671;28;106066;-61
2022/04/04 10:41:03;;;;;;;21.47;19.70;;;;;;;22.91;31.11;95214.22;6113051;28;106872;-61
2022/04/04 10:44:07;;;;;;;20.50;18.80;;;;;;;22.90;31.00;95215.31;6106654;28;103053;-61
2022/04/04 10:47:23;;;;;;;19.90;18.30;;;;;;;22.89;31.48;95211.06;6112669;28;103063;-60
2022/04/04 10:50:30;;;;;;;20.40;18.80;;;;;;;22.88;31.22;95206.84;6111385;28;105303;-61
2022/04/04 10:53:53;;;;;;;21.13;19.43;;;;;;;22.85;30.98;95202.09;6112382;28;102967;-61
2022/04/04 10:56:58;;;;;;;19.87;18.30;;;;;;;22.85;30.91;95194.91;6111977;28;103065;-61
2022/04/04 11:00:07;;;;;;;19.47;17.77;;;;;;;22.87;31.27;95195.38;6112519;28;103258;-61
2022/04/04 11:03:10;;;;;;;20.37;18.60;;;;;;;22.83;30.97;95190.94;6111481;28;102978;-61
2022/04/04 11:09:53;;;;;;;18.63;17.13;;;;;;;22.89;31.19;95189.72;6064258;28;102877;-61
2022/04/04 11:13:04;;;;;;;20.00;18.20;;;;;;;22.91;31.58;95185.66;6047156;28;104009;-60
2022/04/04 11:16:08;;;;;;;18.80;17.20;;;;;;;22.91;31.33;95184.88;6059073;28;103326;-61
2022/04/04 11:19:12;;;;;;;18.63;17.13;;;;;;;22.89;31.18;95189.72;6106146;28;103248;-60
2022/04/04 11:22:19;;;;;;;18.47;16.97;;;;;;;22.87;31.61;95192.69;6093267;28;102799;-60
2022/04/04 11:25:22;;;;;;;17.10;15.73;;;;;;;22.86;31.38;95175.13;6084768;28;105334;-60
2022/04/04 11:28:25;;;;;;;17.87;16.37;;;;;;;22.87;31.06;95179.34;6082343;28;103033;-60
2022/04/04 11:31:27;;;;;;;16.10;14.80;;;;;;;22.85;31.07;95165.53;6087227;28;104039;-61
2022/04/04 11:34:31;;;;;;;16.60;15.30;;;;;;;22.83;31.34;95164.25;6087155;28;103247;-60
2022/04/04 11:37:49;;;;;;;16.07;14.77;;;;;;;22.78;31.54;95156.38;6087358;28;103386;-61
2022/04/04 11:40:55;;;;;;;16.63;15.13;;;;;;;22.81;31.06;95158.44;6086066;28;103065;-60
2022/04/04 11:43:57;;;;;;;16.60;15.00;;;;;;;22.81;31.31;95155.75;6088127;28;103125;-60
2022/04/04 11:47:09;;;;;;;15.60;14.30;;;;;;;22.76;31.21;95139.91;6079663;28;103508;-59
2022/04/04 11:50:12;;;;;;;16.13;14.70;;;;;;;22.81;31.46;95145.88;6061344;28;103174;-60
2022/04/04 11:53:16;;;;;;;17.00;15.20;;;;;;;22.83;31.12;95145.56;6062323;28;103170;-61
2022/04/04 11:56:23;;;;;;;15.10;13.90;;;;;;;22.82;31.47;95136.78;6063926;28;103169;-60
2022/04/04 11:59:26;;;;;;;14.90;13.40;;;;;;;22.82;31.36;95136.78;6064342;28;103264;-60
2022/04/04 12:02:30;;;;;;;14.33;13.23;;;;;;;22.76;31.41;95126.56;6059246;28;104021;-61
2022/04/04 12:05:33;;;;;;;15.33;14.13;;;;;;;22.81;31.52;95124.53;6064678;28;103008;-60
2022/04/04 12:08:36;;;;;;;14.30;13.00;;;;;;;22.84;31.24;95115.13;6046981;28;104021;-60
2022/04/04 12:11:38;;;;;;;14.10;12.80;;;;;;;22.81;31.06;95110.41;6058079;28;103507;-60
2022/04/04 12:14:43;;;;;;;14.87;13.67;;;;;;;22.83;31.26;95105.53;6064473;28;103105;-60
2022/04/04 12:17:48;;;;;;;14.60;13.20;;;;;;;22.82;30.72;95102.09;6082369;28;103231;-60
2022/04/04 12:20:53;;;;;;;14.60;13.40;;;;;;;22.83;31.59;95100.22;6111741;28;103058;-61
2022/04/04 12:27:18;;;;;;;14.90;13.70;;;;;;;22.81;31.21;95083.72;6110580;28;103315;-61
2022/04/04 12:30:28;;;;;;;17.50;16.10;;;;;;;22.81;31.34;95079.19;6111713;28;103197;-61
2022/04/04 12:33:32;;;;;;;17.33;16.00;;;;;;;22.82;31.58;95071.97;6106015;28;103382;-61
2022/04/04 12:36:41;;;;;;;16.50;15.20;;;;;;;22.81;31.09;95070.38;6111201;28;103434;-61
2022/04/04 12:39:43;;;;;;;17.23;15.90;;;;;;;22.81;31.54;95059.72;6110732;28;103344;-61
2022/04/04 12:42:47;;;;;;;17.50;16.00;;;;;;;22.77;31.39;95048.09;6111622;28;103015;-61
2022/04/04 12:45:49;;;;;;;17.83;16.30;;;;;;;22.78;31.54;95053.13;6106444;28;103088;-61
2022/04/04 12:48:51;;;;;;;16.80;15.43;;;;;;;22.80;31.56;95060.81;6110986;28;103969;-61
2022/04/04 12:52:13;;;;;;;16.73;15.33;;;;;;;22.80;31.32;95039.47;6111162;28;103626;-61
2022/04/04 12:55:15;;;;;;;17.37;16.00;;;;;;;22.79;31.37;95033.34;6092697;28;103185;-66
2022/04/04 12:58:23;;;;;;;17.57;16.07;;;;;;;22.79;31.82;95027.22;6093623;28;104001;-61
2022/04/04 13:01:25;;;;;;;16.17;14.80;;;;;;;22.80;31.28;95015.47;6109855;28;104027;-61
2022/04/04 13:04:27;;;;;;;16.77;15.40;;;;;;;22.79;31.58;95017.34;6111238;28;103254;-61
2022/04/04 13:07:30;;;;;;;16.07;14.80;;;;;;;22.80;31.47;95015.47;6105407;28;103044;-61
2022/04/04 13:10:32;;;;;;;17.27;15.57;;;;;;;22.76;31.34;95003.84;6103016;28;104456;-61
2022/04/04 13:13:35;;;;;;;18.13;16.53;;;;;;;22.79;31.56;95005.88;6063462;28;103259;-60
2022/04/04 13:16:44;;;;;;;17.53;16.13;;;;;;;22.79;31.47;95008.56;6065973;28;103252;-61
2022/04/04 13:19:45;;;;;;;18.10;16.60;;;;;;;22.78;31.19;95006.97;6097639;28;103180;-61
2022/04/04 13:22:49;;;;;;;17.60;16.30;;;;;;;22.80;31.67;95007.47;6069760;28;103691;-60
2022/04/04 13:25:51;;;;;;;18.70;17.20;;;;;;;22.80;32.03;95004.78;6086027;28;105769;-61
2022/04/04 13:28:53;;;;;;;18.70;17.00;;;;;;;22.81;31.90;95001.81;6064074;28;102973;-61
2022/04/04 13:31:55;;;;;;;17.20;15.80;;;;;;;22.77;31.47;94992.06;6087008;28;103313;-61
2022/04/04 13:34:57;;;;;;;18.30;16.90;;;;;;;22.59;31.55;94976.03;6088307;28;103419;-60
2022/04/04 13:37:58;;;;;;;17.27;15.90;;;;;;;22.75;31.58;95002.28;6090717;28;103204;-61
2022/04/04 13:41:00;;;;;;;16.43;15.13;;;;;;;22.74;31.48;94992.69;6084977;28;103008;-60
2022/04/04 13:44:02;;;;;;;16.67;15.30;;;;;;;22.75;31.04;94988.94;6091319;28;103995;-62
2022/04/04 13:47:05;;;;;;;16.17;14.70;;;;;;;22.70;31.35;94982.66;6088001;28;103100;-61
2022/04/04 13:50:08;;;;;;;16.80;15.47;;;;;;;22.73;31.34;94986.56;6060174;28;103149;-61
2022/04/04 13:53:10;;;;;;;16.17;14.87;;;;;;;22.74;31.48;94974.81;6064262;28;103045;-60
2022/04/04 13:56:12;;;;;;;14.07;12.67;;;;;;;22.74;31.03;94966.81;6064590;28;103253;-60
2022/04/04 13:59:15;;;;;;;14.67;13.47;;;;;;;22.81;30.79;94958.34;6065832;28;104074;-60
2022/04/04 14:02:17;;;;;;;14.40;13.10;;;;;;;22.88;31.05;94969.34;6069085;28;103182;-61
2022/04/04 14:05:21;;;;;;;18.83;17.27;;;;;;;22.89;31.91;94969.03;6087989;28;104036;-61
2022/04/04 14:08:43;;;;;;;17.17;15.77;;;;;;;22.89;31.50;94966.38;6089316;28;102881;-61
2022/04/04 14:11:45;;;;;;;17.40;15.80;;;;;;;22.86;30.99;94967.00;6089758;28;105664;-61